Time;durP1;ratioP1;P1;durP2;ratioP2;P2;SDS_P1;SDS_P2;PMS_P1;PMS_P2;Temp;Humidity;BMP_temperature;BMP_pressure;BME280_temperature;BME280_humidity;BME280_pressure;Samples;Min_cycle;Max_cycle;Signal;HPM_P1;HPM_P2
2022/05/04 00:01:33;;;;;;;3.67;2.03;;;8.60;99.90;;;;;;4994834;28;21570;-65
2022/05/04 00:03:59;;;;;;;2.55;2.35;;;8.60;99.90;;;;;;4990414;28;20085;-66
2022/05/04 00:06:26;;;;;;;6.28;1.98;;;8.60;99.90;;;;;;4992246;28;20050;-65
2022/05/04 00:08:52;;;;;;;2.28;1.92;;;8.60;99.90;;;;;;4992345;28;20093;-66
2022/05/04 00:11:17;;;;;;;3.35;1.88;;;8.60;99.90;;;;;;5004477;28;20145;-66
2022/05/04 00:13:43;;;;;;;4.75;2.17;;;8.60;99.90;;;;;;5011416;28;20072;-66
2022/05/04 00:16:09;;;;;;;3.05;1.50;;;8.60;99.90;;;;;;5012349;28;20176;-66
2022/05/04 00:18:34;;;;;;;6.80;1.92;;;8.60;99.90;;;;;;5012572;28;20144;-66
2022/05/04 00:21:00;;;;;;;2.58;1.80;;;8.60;99.90;;;;;;5014023;28;20049;-66
2022/05/04 00:23:26;;;;;;;5.28;2.20;;;8.60;99.90;;;;;;5012542;28;20159;-66
2022/05/04 00:25:52;;;;;;;5.18;2.25;;;8.60;99.90;;;;;;5006353;28;20050;-65
2022/05/04 00:28:17;;;;;;;5.15;2.08;;;8.60;99.90;;;;;;5014328;28;20052;-66
2022/05/04 00:30:44;;;;;;;6.72;2.20;;;8.60;99.90;;;;;;5013942;28;20069;-66
2022/05/04 00:33:10;;;;;;;1.58;1.48;;;8.60;99.90;;;;;;5014496;28;20552;-66
2022/05/04 00:35:35;;;;;;;2.47;1.52;;;8.60;99.90;;;;;;5013843;28;20056;-66
2022/05/04 00:38:01;;;;;;;3.03;1.73;;;8.50;99.90;;;;;;5012975;28;20945;-66
2022/05/04 00:40:27;;;;;;;4.63;1.45;;;8.60;99.90;;;;;;5014552;28;20129;-66
2022/05/04 00:42:53;;;;;;;2.53;1.45;;;8.60;99.90;;;;;;5013093;28;20710;-66
2022/05/04 00:45:18;;;;;;;1.88;1.50;;;8.60;99.90;;;;;;5013858;28;20050;-66
2022/05/04 00:47:44;;;;;;;2.15;1.30;;;8.60;99.90;;;;;;5013766;28;20880;-66
2022/05/04 00:50:10;;;;;;;1.27;1.20;;;8.60;99.90;;;;;;5007677;28;20433;-66
2022/05/04 00:52:37;;;;;;;4.88;2.45;;;8.60;99.90;;;;;;5013118;28;20470;-66
2022/05/04 00:55:06;;;;;;;2.33;1.83;;;8.70;99.90;;;;;;5011783;28;20108;-66
2022/05/04 01:00:26;;;;;;;4.78;1.60;;;8.70;99.90;;;;;;5014180;28;20068;-66
2022/05/04 01:02:51;;;;;;;1.88;1.63;;;8.70;99.90;;;;;;5013338;28;20080;-66
2022/05/04 01:05:17;;;;;;;1.92;1.45;;;8.70;99.90;;;;;;5014081;28;20045;-66
2022/05/04 01:07:45;;;;;;;2.03;1.60;;;8.70;99.90;;;;;;5016470;28;20053;-66
2022/05/04 01:10:12;;;;;;;1.77;1.67;;;8.80;99.90;;;;;;5016140;28;20041;-66
2022/05/04 01:12:54;;;;;;;4.47;1.80;;;8.70;99.90;;;;;;5017506;28;20140;-66
2022/05/04 01:15:22;;;;;;;6.10;2.00;;;8.80;99.90;;;;;;5017446;28;20799;-66
2022/05/04 01:17:48;;;;;;;2.80;1.60;;;8.80;99.90;;;;;;5017241;28;20041;-66
2022/05/04 01:20:15;;;;;;;2.15;1.48;;;8.80;99.90;;;;;;5015203;28;20053;-66
2022/05/04 01:22:40;;;;;;;3.10;1.75;;;8.80;99.90;;;;;;5017137;28;20049;-66
2022/05/04 01:25:07;;;;;;;2.03;1.33;;;8.80;99.90;;;;;;5016864;28;20044;-66
2022/05/04 01:27:33;;;;;;;7.45;1.95;;;8.80;99.90;;;;;;5016894;28;20108;-66
2022/05/04 01:29:58;;;;;;;4.25;2.00;;;8.80;99.90;;;;;;5016188;28;20057;-66
2022/05/04 01:32:25;;;;;;;5.60;1.80;;;8.80;99.90;;;;;;5017374;28;20060;-66
2022/05/04 01:34:50;;;;;;;5.13;1.55;;;8.80;99.90;;;;;;5015165;28;20050;-66
2022/05/04 01:37:16;;;;;;;3.92;1.95;;;8.80;99.90;;;;;;5017467;28;20494;-66
2022/05/04 01:39:42;;;;;;;1.75;1.63;;;8.80;99.90;;;;;;5016513;28;20084;-66
2022/05/04 01:42:13;;;;;;;4.88;1.45;;;8.80;99.90;;;;;;5016945;28;20057;-66
2022/05/04 01:44:40;;;;;;;7.28;1.80;;;8.80;99.90;;;;;;5009895;28;20056;-66
2022/05/04 01:47:06;;;;;;;3.10;1.60;;;8.80;99.90;;;;;;5016538;28;20508;-66
2022/05/04 01:49:32;;;;;;;2.20;1.63;;;8.80;99.90;;;;;;5016274;28;20057;-66
2022/05/04 01:51:57;;;;;;;3.08;1.58;;;8.80;99.90;;;;;;5016922;28;20544;-66
2022/05/04 01:54:23;;;;;;;3.47;1.55;;;8.80;99.90;;;;;;5014964;28;20049;-66
2022/05/04 01:56:48;;;;;;;4.32;1.60;;;8.80;99.90;;;;;;5016439;28;20171;-66
2022/05/04 01:59:14;;;;;;;3.67;1.67;;;8.80;99.90;;;;;;5016090;28;20048;-67
2022/05/04 02:01:40;;;;;;;5.20;2.58;;;8.80;99.90;;;;;;5015677;28;20561;-67
2022/05/04 02:04:06;;;;;;;3.03;1.50;;;8.80;99.90;;;;;;5015772;28;20226;-67
2022/05/04 02:06:32;;;;;;;2.53;1.83;;;8.80;99.90;;;;;;5015122;28;20108;-67
2022/05/04 02:08:59;;;;;;;3.97;2.50;;;8.80;99.90;;;;;;5013483;28;20053;-67
2022/05/04 02:11:25;;;;;;;5.70;1.92;;;8.90;99.90;;;;;;5015975;28;20801;-67
2022/05/04 02:13:51;;;;;;;1.45;1.35;;;8.80;99.90;;;;;;5016094;28;20064;-67
2022/05/04 02:16:17;;;;;;;2.88;1.50;;;8.90;99.90;;;;;;5014360;28;20079;-67
2022/05/04 02:18:43;;;;;;;2.53;2.33;;;8.80;99.90;;;;;;5016136;28;20045;-67
2022/05/04 02:21:11;;;;;;;2.08;1.52;;;8.80;99.90;;;;;;5014988;28;20045;-67
2022/05/04 02:23:37;;;;;;;3.47;2.28;;;8.80;99.90;;;;;;5009249;28;20050;-66
2022/05/04 02:26:03;;;;;;;3.70;2.45;;;8.80;99.90;;;;;;5014953;28;20044;-67
2022/05/04 02:28:28;;;;;;;4.32;1.90;;;8.80;99.90;;;;;;5014052;28;20485;-67
2022/05/04 02:30:54;;;;;;;1.90;1.40;;;8.80;99.90;;;;;;5013746;28;20834;-67
2022/05/04 02:33:20;;;;;;;3.17;1.48;;;8.80;99.90;;;;;;5015490;28;20048;-67
2022/05/04 02:38:30;;;;;;;2.75;1.40;;;8.80;99.90;;;;;;5013821;28;20917;-67
2022/05/04 02:40:55;;;;;;;8.88;1.60;;;8.80;99.90;;;;;;5014383;28;20056;-67
2022/05/04 02:43:21;;;;;;;3.13;1.70;;;8.80;99.90;;;;;;5014957;28;20265;-67
2022/05/04 02:45:46;;;;;;;2.58;1.77;;;8.80;99.90;;;;;;5014342;28;20767;-67
2022/05/04 02:48:12;;;;;;;7.97;1.65;;;8.80;99.90;;;;;;5015505;28;20151;-67
2022/05/04 02:50:38;;;;;;;4.28;2.08;;;8.80;99.90;;;;;;5014730;28;20543;-67
2022/05/04 02:53:04;;;;;;;7.07;1.70;;;8.90;99.90;;;;;;5014700;28;20073;-67
2022/05/04 02:55:30;;;;;;;2.08;1.77;;;8.80;99.90;;;;;;5014910;28;20076;-67
2022/05/04 02:57:56;;;;;;;2.47;2.15;;;8.80;99.90;;;;;;5013144;28;20231;-67
2022/05/04 03:00:21;;;;;;;2.58;1.90;;;8.80;99.90;;;;;;5014746;28;20049;-68
2022/05/04 03:02:47;;;;;;;1.70;1.60;;;8.80;99.90;;;;;;5013920;28;20038;-67
2022/05/04 03:05:14;;;;;;;4.53;1.98;;;8.80;99.90;;;;;;5014434;28;20123;-67
2022/05/04 03:07:40;;;;;;;1.88;1.70;;;8.70;99.90;;;;;;5015497;28;20765;-67
2022/05/04 03:10:06;;;;;;;2.70;2.50;;;8.70;99.90;;;;;;5013972;28;20054;-67
2022/05/04 03:12:32;;;;;;;3.60;2.00;;;8.70;99.90;;;;;;5014416;28;20041;-67
2022/05/04 03:14:58;;;;;;;5.25;2.08;;;8.70;99.90;;;;;;5014588;28;20083;-67
2022/05/04 03:17:23;;;;;;;3.03;1.65;;;8.70;99.90;;;;;;5014764;28;20522;-67
2022/05/04 03:19:49;;;;;;;1.98;1.52;;;8.70;99.90;;;;;;5012444;28;20038;-67
2022/05/04 03:22:15;;;;;;;7.00;2.15;;;8.70;99.90;;;;;;5013613;28;20053;-66
2022/05/04 03:24:41;;;;;;;4.28;2.03;;;8.60;99.90;;;;;;5014749;28;20130;-66
2022/05/04 03:27:07;;;;;;;11.93;2.03;;;8.70;99.90;;;;;;5014462;28;20120;-66
2022/05/04 03:29:33;;;;;;;3.92;2.03;;;8.60;99.90;;;;;;5013818;28;20542;-66
2022/05/04 03:31:59;;;;;;;2.75;2.33;;;8.60;99.90;;;;;;5014549;28;20091;-66
2022/05/04 03:34:24;;;;;;;4.03;1.65;;;8.60;99.90;;;;;;5014363;28;20611;-66
2022/05/04 03:36:50;;;;;;;4.82;2.30;;;8.50;99.90;;;;;;5014641;28;20048;-66
2022/05/04 03:39:16;;;;;;;1.80;1.70;;;8.50;99.90;;;;;;5014524;28;20432;-66
2022/05/04 03:41:42;;;;;;;4.57;1.65;;;8.50;99.90;;;;;;5014065;28;20057;-66
2022/05/04 03:44:07;;;;;;;4.00;1.67;;;8.50;99.90;;;;;;5014062;28;20045;-66
2022/05/04 03:46:47;;;;;;;1.52;1.40;;;8.40;99.90;;;;;;5013917;28;20041;-66
2022/05/04 03:49:14;;;;;;;1.95;1.42;;;8.40;99.90;;;;;;5012978;28;20041;-66
2022/05/04 03:51:40;;;;;;;4.15;2.00;;;8.40;99.90;;;;;;5013995;28;20136;-66
2022/05/04 03:54:06;;;;;;;2.33;2.13;;;8.50;99.90;;;;;;5013441;28;20194;-66
2022/05/04 03:56:32;;;;;;;7.40;2.08;;;8.00;99.90;;;;;;5012141;28;20119;-66
2022/05/04 03:58:57;;;;;;;2.22;1.85;;;8.50;99.90;;;;;;5013786;28;20052;-66
2022/05/04 04:01:23;;;;;;;2.60;1.73;;;8.50;99.90;;;;;;5012089;28;20537;-65
2022/05/04 04:03:48;;;;;;;3.40;1.90;;;8.60;99.90;;;;;;5013785;28;20937;-66
2022/05/04 04:06:15;;;;;;;2.58;1.15;;;8.60;99.90;;;;;;5013979;28;20260;-66
2022/05/04 04:08:41;;;;;;;2.10;1.70;;;8.60;99.90;;;;;;5013502;28;20140;-66
2022/05/04 04:11:06;;;;;;;3.20;1.95;;;8.60;99.90;;;;;;5012703;28;20049;-66
2022/05/04 04:13:32;;;;;;;6.82;2.58;;;8.60;99.90;;;;;;5012122;28;20896;-66
2022/05/04 04:15:58;;;;;;;3.88;2.00;;;8.60;99.90;;;;;;5013862;28;20885;-66
2022/05/04 04:18:25;;;;;;;3.72;1.98;;;8.70;99.90;;;;;;5013919;28;20097;-66
2022/05/04 04:23:36;;;;;;;3.42;1.48;;;8.70;99.90;;;;;;5013488;28;20047;-66
2022/05/04 04:26:04;;;;;;;6.75;1.90;;;8.80;99.90;;;;;;5013857;28;20065;-66
2022/05/04 04:28:30;;;;;;;2.88;1.33;;;8.80;99.90;;;;;;5013705;28;20045;-65
2022/05/04 04:30:56;;;;;;;2.67;1.67;;;8.80;99.90;;;;;;5011906;28;20528;-66
2022/05/04 04:33:26;;;;;;;4.18;2.35;;;8.80;99.90;;;;;;5011943;28;20073;-66
2022/05/04 04:35:52;;;;;;;3.60;1.38;;;8.90;99.90;;;;;;5013613;28;20210;-66
2022/05/04 04:38:18;;;;;;;4.35;1.75;;;8.90;99.90;;;;;;5011498;28;20041;-66
2022/05/04 04:40:43;;;;;;;3.25;1.90;;;8.90;99.90;;;;;;5016291;28;20103;-66
2022/05/04 04:43:09;;;;;;;3.67;2.15;;;8.90;99.90;;;;;;5017257;28;20132;-66
2022/05/04 04:45:34;;;;;;;3.22;1.85;;;8.90;99.90;;;;;;5016315;28;20049;-66
2022/05/04 04:48:00;;;;;;;2.22;1.70;;;9.00;99.90;;;;;;5017213;28;20691;-66
2022/05/04 04:50:26;;;;;;;5.45;2.80;;;9.00;99.90;;;;;;5015618;28;20050;-66
2022/05/04 04:52:51;;;;;;;5.05;1.60;;;9.10;99.90;;;;;;5016711;28;20057;-68
2022/05/04 04:55:17;;;;;;;3.15;1.80;;;9.10;99.90;;;;;;5017455;28;20042;-65
2022/05/04 04:57:43;;;;;;;5.95;1.77;;;9.10;99.90;;;;;;5013975;28;20060;-65
2022/05/04 05:00:09;;;;;;;5.90;1.92;;;9.20;99.90;;;;;;5012226;28;20819;-65
2022/05/04 05:02:35;;;;;;;4.35;2.30;;;9.20;99.90;;;;;;5017505;28;20079;-65
2022/05/04 05:05:02;;;;;;;2.40;1.77;;;9.20;99.90;;;;;;5015825;28;20105;-68
2022/05/04 05:07:28;;;;;;;5.25;3.13;;;9.20;99.90;;;;;;5016539;28;20076;-65
2022/05/04 05:09:54;;;;;;;2.75;1.88;;;9.20;99.90;;;;;;5016486;28;20144;-65
2022/05/04 05:12:21;;;;;;;2.30;1.60;;;9.20;99.90;;;;;;5016680;28;20846;-65
2022/05/04 05:17:31;;;;;;;3.50;2.00;;;9.20;99.90;;;;;;5015130;28;20060;-65
2022/05/04 05:19:57;;;;;;;5.28;2.22;;;9.30;99.90;;;;;;5014562;28;20041;-65
2022/05/04 05:22:23;;;;;;;6.07;2.03;;;9.30;99.90;;;;;;5013720;28;20092;-65
2022/05/04 05:24:48;;;;;;;2.83;1.88;;;9.30;99.90;;;;;;5013962;28;20081;-65
2022/05/04 05:27:14;;;;;;;4.57;1.67;;;9.40;99.90;;;;;;5012894;28;20111;-65
2022/05/04 05:29:40;;;;;;;3.08;1.73;;;9.50;99.90;;;;;;5004008;28;20045;-65
2022/05/04 05:32:06;;;;;;;3.47;1.73;;;9.50;99.90;;;;;;5001499;28;20954;-65
2022/05/04 05:34:33;;;;;;;4.18;1.38;;;9.50;99.90;;;;;;4997310;28;20127;-65
2022/05/04 05:37:00;;;;;;;6.63;1.83;;;9.60;99.90;;;;;;4998559;28;20049;-65
2022/05/04 05:39:25;;;;;;;7.57;2.22;;;9.60;99.80;;;;;;5003226;28;20037;-65
2022/05/04 05:41:51;;;;;;;1.75;1.65;;;9.60;99.80;;;;;;5000931;28;20103;-65
2022/05/04 05:44:17;;;;;;;3.15;1.45;;;9.60;99.90;;;;;;4996929;28;20153;-67
2022/05/04 05:46:43;;;;;;;2.80;1.70;;;9.60;99.90;;;;;;4995894;28;20232;-66
2022/05/04 05:49:08;;;;;;;2.33;1.50;;;9.50;98.30;;;;;;4999352;28;20087;-65
2022/05/04 05:51:34;;;;;;;1.55;1.40;;;9.60;99.40;;;;;;4993106;28;20474;-65
2022/05/04 05:53:59;;;;;;;4.05;2.10;;;9.60;99.60;;;;;;5001085;28;20492;-66
2022/05/04 05:56:25;;;;;;;6.07;2.83;;;9.70;99.10;;;;;;4997834;28;20658;-67
2022/05/04 05:58:51;;;;;;;1.60;1.50;;;9.70;99.40;;;;;;4999438;28;20068;-66
2022/05/04 06:01:16;;;;;;;3.97;1.30;;;9.90;99.90;;;;;;5000610;28;20045;-66
2022/05/04 06:03:42;;;;;;;2.40;1.70;;;9.90;99.60;;;;;;4997434;28;20061;-66
2022/05/04 06:06:08;;;;;;;4.13;1.73;;;10.00;99.70;;;;;;5005472;28;20037;-66
2022/05/04 06:08:35;;;;;;;4.07;2.10;;;10.00;99.20;;;;;;5000954;28;20173;-66
2022/05/04 06:11:00;;;;;;;1.70;1.60;;;10.00;98.30;;;;;;4994892;28;20605;-66
2022/05/04 06:13:26;;;;;;;2.58;1.58;;;10.00;98.60;;;;;;4996686;28;20085;-66
2022/05/04 06:15:51;;;;;;;3.45;3.15;;;10.00;99.00;;;;;;5000059;28;20144;-66
2022/05/04 06:18:17;;;;;;;2.45;2.00;;;10.00;98.90;;;;;;4997310;28;20133;-66
2022/05/04 06:20:43;;;;;;;2.55;1.63;;;10.00;99.00;;;;;;5003985;28;20062;-66
2022/05/04 06:23:09;;;;;;;3.20;2.22;;;10.10;99.00;;;;;;4997063;28;20406;-66
2022/05/04 06:25:36;;;;;;;6.35;2.65;;;10.10;99.10;;;;;;4997248;28;20056;-66
2022/05/04 06:28:02;;;;;;;4.05;1.52;;;10.10;98.60;;;;;;4996537;28;20049;-66
2022/05/04 06:35:56;;;;;;;3.38;1.80;;;10.20;97.80;;;;;;4999725;28;20054;-66
2022/05/04 06:38:22;;;;;;;3.53;2.05;;;10.20;97.80;;;;;;5003559;28;20754;-66
2022/05/04 06:40:47;;;;;;;2.03;1.77;;;10.30;97.70;;;;;;4998656;28;20684;-66
2022/05/04 06:43:13;;;;;;;3.83;1.92;;;10.30;97.30;;;;;;5003053;28;20772;-66
2022/05/04 06:45:38;;;;;;;2.42;1.33;;;10.40;97.20;;;;;;5002779;28;20338;-66
2022/05/04 06:48:05;;;;;;;7.20;2.63;;;10.50;95.80;;;;;;4997613;28;20050;-65
2022/05/04 06:50:30;;;;;;;3.72;1.75;;;10.50;96.60;;;;;;5005378;28;20033;-65
2022/05/04 06:52:56;;;;;;;2.47;1.60;;;10.30;95.80;;;;;;4658663;28;10000162;-63
2022/05/04 06:55:21;;;;;;;4.45;3.38;;;10.40;96.70;;;;;;4654805;28;10000202;-65
2022/05/04 06:57:47;;;;;;;5.07;2.13;;;10.70;96.20;;;;;;5001563;28;20052;-66
2022/05/04 07:00:13;;;;;;;3.85;2.83;;;10.60;97.00;;;;;;5000493;28;20093;-66
2022/05/04 07:02:39;;;;;;;1.58;1.30;;;10.70;95.60;;;;;;4998277;28;20104;-69
2022/05/04 07:05:05;;;;;;;3.97;1.60;;;10.80;96.00;;;;;;4998875;28;20426;-65
2022/05/04 07:07:31;;;;;;;1.40;1.30;;;10.90;95.90;;;;;;4999530;28;20056;-65
2022/05/04 07:09:58;;;;;;;5.90;2.45;;;10.90;95.70;;;;;;4992851;28;20379;-65
2022/05/04 07:12:24;;;;;;;1.65;1.48;;;10.80;94.70;;;;;;4999771;28;20045;-65
2022/05/04 07:14:51;;;;;;;1.55;1.40;;;10.80;94.60;;;;;;4998106;28;20045;-66
2022/05/04 07:17:17;;;;;;;8.68;1.73;;;10.80;95.10;;;;;;4996248;28;20053;-66
2022/05/04 07:19:43;;;;;;;1.98;1.50;;;10.70;94.20;;;;;;5003207;28;20041;-66
2022/05/04 07:22:09;;;;;;;2.78;2.45;;;10.70;94.60;;;;;;4997046;28;20784;-66
2022/05/04 07:24:34;;;;;;;1.77;1.67;;;10.80;93.90;;;;;;4994974;28;20116;-66
2022/05/04 07:27:00;;;;;;;2.28;1.50;;;10.60;93.00;;;;;;4999261;28;20080;-66
2022/05/04 07:29:25;;;;;;;3.63;2.10;;;10.70;94.50;;;;;;4992612;28;20485;-65
2022/05/04 07:31:51;;;;;;;3.78;1.80;;;10.70;94.40;;;;;;4998679;28;20565;-66
2022/05/04 07:34:17;;;;;;;4.82;1.77;;;10.80;93.60;;;;;;4995696;28;20050;-66
2022/05/04 07:36:44;;;;;;;3.65;1.67;;;10.70;92.90;;;;;;4996955;28;20045;-66
2022/05/04 07:42:21;;;;;;;2.28;1.52;;;10.70;94.10;;;;;;5000656;28;20148;-66
2022/05/04 07:44:40;;;;;;;3.88;2.25;;;11.00;94.10;;;;;;4998660;28;20718;-65
2022/05/04 07:47:06;;;;;;;2.08;1.88;;;11.20;94.00;;;;;;5003315;28;20053;-65
2022/05/04 07:49:32;;;;;;;5.72;1.70;;;11.20;92.10;;;;;;4997023;28;20049;-66
2022/05/04 07:51:57;;;;;;;4.43;2.70;;;11.30;93.80;;;;;;5000770;28;20124;-66
2022/05/04 07:54:23;;;;;;;2.75;1.85;;;11.40;93.80;;;;;;5002535;28;20041;-66
2022/05/04 07:56:49;;;;;;;2.17;1.60;;;12.00;93.70;;;;;;5001432;28;20053;-66
2022/05/04 07:59:14;;;;;;;5.05;1.75;;;12.50;92.90;;;;;;4997748;28;20143;-66
2022/05/04 08:04:24;;;;;;;2.70;1.60;;;13.30;92.30;;;;;;4655438;28;10000562;-65
2022/05/04 08:06:50;;;;;;;4.07;1.20;;;13.40;92.80;;;;;;5000239;28;20049;-66
2022/05/04 08:09:16;;;;;;;4.93;1.67;;;12.90;89.00;;;;;;4992211;28;20759;-65
2022/05/04 08:11:43;;;;;;;3.17;1.52;;;12.60;91.90;;;;;;5001570;28;20054;-67
2022/05/04 08:14:09;;;;;;;7.53;1.90;;;12.40;91.90;;;;;;4994275;28;20141;-66
2022/05/04 08:16:35;;;;;;;5.03;1.65;;;12.50;92.50;;;;;;4992627;28;20108;-66
2022/05/04 08:19:01;;;;;;;2.95;1.45;;;12.50;92.30;;;;;;4996312;28;20858;-65
2022/05/04 08:21:27;;;;;;;6.32;1.67;;;12.40;92.50;;;;;;4991511;28;20140;-66
2022/05/04 08:23:52;;;;;;;2.78;1.40;;;12.30;90.00;;;;;;4994484;28;20196;-66
2022/05/04 08:26:18;;;;;;;2.47;1.63;;;12.00;90.30;;;;;;4997722;28;20443;-66
2022/05/04 08:28:44;;;;;;;1.40;1.27;;;11.80;91.30;;;;;;5004288;28;20034;-66
2022/05/04 08:31:09;;;;;;;6.00;1.88;;;11.90;91.70;;;;;;4998696;28;20053;-66
2022/05/04 08:33:35;;;;;;;3.97;2.50;;;11.90;91.70;;;;;;5001103;28;20128;-66
2022/05/04 08:36:01;;;;;;;5.72;1.80;;;12.10;91.80;;;;;;5000292;28;20049;-66
2022/05/04 08:38:27;;;;;;;2.55;1.58;;;12.90;91.80;;;;;;5000395;28;20037;-66
2022/05/04 08:40:57;;;;;;;2.15;1.90;;;14.40;91.50;;;;;;4996191;28;20423;-64
2022/05/04 08:43:24;;;;;;;3.08;1.55;;;15.00;90.40;;;;;;4992079;28;20073;-64
2022/05/04 08:45:53;;;;;;;5.07;2.03;;;15.00;90.60;;;;;;4997144;28;20037;-66
2022/05/04 08:48:21;;;;;;;3.85;1.45;;;14.60;88.90;;;;;;4998093;28;20957;-66
2022/05/04 08:50:46;;;;;;;6.43;2.50;;;14.30;89.70;;;;;;5002480;28;20069;-66
2022/05/04 08:53:16;;;;;;;1.55;1.45;;;14.80;90.10;;;;;;4999690;28;20144;-66
2022/05/04 08:55:43;;;;;;;2.20;1.80;;;14.20;89.80;;;;;;4990214;28;20084;-66
2022/05/04 08:58:09;;;;;;;1.67;1.55;;;14.20;89.20;;;;;;4990503;28;20078;-66
2022/05/04 09:00:34;;;;;;;2.00;1.25;;;14.30;89.40;;;;;;5008325;28;20734;-66
2022/05/04 09:03:00;;;;;;;1.75;1.60;;;14.00;82.10;;;;;;5009193;28;20057;-66
2022/05/04 09:05:29;;;;;;;4.38;1.88;;;13.80;87.60;;;;;;5009346;28;20887;-66
2022/05/04 09:07:56;;;;;;;3.28;1.75;;;13.20;87.50;;;;;;5009322;28;20057;-66
2022/05/04 09:10:34;;;;;;;5.18;1.70;;;13.00;89.00;;;;;;4993340;28;20876;-66
2022/05/04 09:13:00;;;;;;;3.45;2.00;;;12.90;85.10;;;;;;4996844;28;20533;-65
2022/05/04 09:15:28;;;;;;;6.55;2.17;;;12.50;85.00;;;;;;4992022;28;20056;-66
2022/05/04 09:18:07;;;;;;;2.95;2.17;;;12.30;88.10;;;;;;4989280;28;20050;-66
2022/05/04 09:20:55;;;;;;;4.80;2.28;;;12.60;88.10;;;;;;4991273;28;20505;-64
2022/05/04 09:23:22;;;;;;;1.77;1.58;;;13.00;88.90;;;;;;4993081;28;20105;-66
2022/05/04 09:25:57;;;;;;;4.10;1.83;;;13.50;89.90;;;;;;4993107;28;20061;-66
2022/05/04 09:28:26;;;;;;;3.15;1.65;;;12.90;87.80;;;;;;4997619;28;20054;-66
2022/05/04 09:30:54;;;;;;;2.47;1.73;;;13.40;87.50;;;;;;4998011;28;20053;-66
2022/05/04 09:33:23;;;;;;;1.85;1.70;;;13.00;85.70;;;;;;5007717;28;20057;-66
2022/05/04 09:35:50;;;;;;;4.53;2.35;;;13.30;89.10;;;;;;5016241;28;20158;-66
2022/05/04 09:46:34;;;;;;;6.05;1.83;;;14.30;88.30;;;;;;5016315;28;20068;-66
2022/05/04 09:49:09;;;;;;;2.95;1.63;;;15.70;86.80;;;;;;5014707;28;20111;-66
2022/05/04 09:51:36;;;;;;;3.70;1.77;;;16.40;83.20;;;;;;5016778;28;20056;-66
2022/05/04 09:54:17;;;;;;;5.18;2.05;;;16.60;82.80;;;;;;5014575;28;20060;-66
2022/05/04 09:56:49;;;;;;;2.63;1.60;;;16.30;83.10;;;;;;5016324;28;20778;-66
2022/05/04 09:59:16;;;;;;;2.92;1.77;;;16.10;79.40;;;;;;5016392;28;20045;-67
2022/05/04 10:01:43;;;;;;;3.72;1.80;;;16.40;84.20;;;;;;5017026;28;20947;-66
2022/05/04 10:04:10;;;;;;;4.28;1.77;;;16.10;80.80;;;;;;5017150;28;20500;-66
2022/05/04 10:06:36;;;;;;;2.97;2.30;;;15.80;82.20;;;;;;5016014;28;20053;-66
2022/05/04 10:09:04;;;;;;;3.45;1.92;;;15.00;78.70;;;;;;5017391;28;20049;-65
2022/05/04 10:11:30;;;;;;;3.22;1.88;;;14.50;77.90;;;;;;5016015;28;20088;-66
2022/05/04 10:14:04;;;;;;;4.05;1.63;;;15.50;83.90;;;;;;5016226;28;20107;-67
2022/05/04 10:16:51;;;;;;;3.28;1.70;;;15.40;80.30;;;;;;5017263;28;20622;-66
2022/05/04 10:19:25;;;;;;;6.47;2.78;;;15.10;80.30;;;;;;5016506;28;20053;-66
2022/05/04 10:21:55;;;;;;;3.58;2.00;;;14.90;80.90;;;;;;5014900;28;20046;-66
2022/05/04 10:24:21;;;;;;;2.90;2.00;;;15.70;80.40;;;;;;5016969;28;20061;-66
2022/05/04 10:26:47;;;;;;;4.88;1.75;;;16.20;83.50;;;;;;5015468;28;20057;-66
2022/05/04 10:32:36;;;;;;;4.22;2.25;;;16.50;76.10;;;;;;4998728;28;20354;-66
2022/05/04 10:35:11;;;;;;;3.45;1.80;;;17.20;77.70;;;;;;5013738;28;20061;-66
2022/05/04 10:38:00;;;;;;;2.78;1.90;;;16.20;77.20;;;;;;5013139;28;20160;-66
2022/05/04 10:40:26;;;;;;;2.13;1.80;;;16.70;78.10;;;;;;5013058;28;20069;-66
2022/05/04 10:42:56;;;;;;;4.50;1.75;;;16.80;82.60;;;;;;5011502;28;20049;-66
2022/05/04 10:45:27;;;;;;;3.65;1.80;;;16.90;80.40;;;;;;5004842;28;20056;-66
2022/05/04 10:48:21;;;;;;;7.28;2.03;;;16.60;75.80;;;;;;4997236;28;20088;-65
2022/05/04 10:50:57;;;;;;;4.18;1.80;;;16.10;76.30;;;;;;5001606;28;20057;-66
2022/05/04 10:53:25;;;;;;;4.68;2.22;;;16.00;79.70;;;;;;4997744;28;20065;-67
2022/05/04 10:56:03;;;;;;;3.33;1.73;;;16.00;80.40;;;;;;4999559;28;20045;-66
2022/05/04 10:58:32;;;;;;;2.65;1.70;;;16.20;78.20;;;;;;5012272;28;20155;-66
2022/05/04 11:01:12;;;;;;;8.90;1.92;;;16.10;79.30;;;;;;5012750;28;20067;-66
2022/05/04 11:03:48;;;;;;;5.13;2.38;;;16.30;78.50;;;;;;5011917;28;20172;-66
2022/05/04 11:06:23;;;;;;;3.92;2.33;;;15.80;78.40;;;;;;4997742;28;20049;-66
2022/05/04 11:08:49;;;;;;;2.85;2.30;;;15.60;78.70;;;;;;5002194;28;20037;-66
2022/05/04 11:11:15;;;;;;;6.22;2.88;;;14.90;77.80;;;;;;4997317;28;20050;-65
2022/05/04 11:13:43;;;;;;;4.63;2.42;;;14.70;79.10;;;;;;4999460;28;20096;-66
2022/05/04 11:16:09;;;;;;;6.53;2.88;;;15.00;79.70;;;;;;4994215;28;20052;-66
2022/05/04 11:18:35;;;;;;;4.65;2.50;;;15.00;79.00;;;;;;4999555;28;20045;-66
2022/05/04 11:21:09;;;;;;;2.78;2.10;;;15.00;79.20;;;;;;4996398;28;20404;-66
2022/05/04 11:23:37;;;;;;;5.47;1.77;;;14.80;78.70;;;;;;4996032;28;20042;-65
2022/05/04 11:26:03;;;;;;;4.00;2.50;;;15.00;77.80;;;;;;4992573;28;20470;-65
2022/05/04 11:28:28;;;;;;;4.25;2.05;;;14.60;77.50;;;;;;4998601;28;20151;-66
2022/05/04 11:30:54;;;;;;;5.65;2.45;;;14.40;78.80;;;;;;4998740;28;20791;-65
2022/05/04 11:33:21;;;;;;;3.15;2.30;;;14.30;79.20;;;;;;4994591;28;20047;-66
2022/05/04 11:35:54;;;;;;;2.63;2.42;;;14.20;79.40;;;;;;5000009;28;20048;-65
2022/05/04 11:38:21;;;;;;;3.25;2.67;;;14.20;79.60;;;;;;4999006;28;20296;-66
2022/05/04 11:40:47;;;;;;;2.42;1.95;;;14.20;80.80;;;;;;4997374;28;20824;-66
2022/05/04 11:43:27;;;;;;;2.78;2.40;;;14.10;80.30;;;;;;4998110;28;20413;-66
2022/05/04 11:45:54;;;;;;;2.40;1.77;;;14.20;80.00;;;;;;4998488;28;20057;-66
2022/05/04 11:48:21;;;;;;;4.88;2.28;;;14.50;80.20;;;;;;5000421;28;21021;-65
2022/05/04 11:50:47;;;;;;;4.40;1.70;;;14.70;79.10;;;;;;4997314;28;20041;-65
2022/05/04 11:53:14;;;;;;;3.53;2.25;;;15.00;79.40;;;;;;4989837;28;20053;-65
2022/05/04 11:55:39;;;;;;;8.10;2.85;;;15.20;79.20;;;;;;4995740;28;20580;-65
2022/05/04 11:58:11;;;;;;;4.13;2.60;;;15.00;77.50;;;;;;4991949;28;20054;-65
2022/05/04 12:00:38;;;;;;;5.65;2.22;;;14.30;78.00;;;;;;4995406;28;20051;-65
2022/05/04 12:03:05;;;;;;;8.13;2.22;;;14.50;79.40;;;;;;4995902;28;20084;-65
2022/05/04 12:05:31;;;;;;;4.28;1.80;;;14.90;80.30;;;;;;4998241;28;20948;-66
2022/05/04 12:07:58;;;;;;;3.63;2.17;;;15.00;79.70;;;;;;4996973;28;20989;-65
2022/05/04 12:10:24;;;;;;;6.68;2.08;;;14.80;78.70;;;;;;4994738;28;20116;-65
2022/05/04 12:12:50;;;;;;;6.38;2.83;;;14.20;79.50;;;;;;4994802;28;20038;-65
2022/05/04 12:15:16;;;;;;;4.07;1.98;;;14.30;80.40;;;;;;4995721;28;20049;-65
2022/05/04 12:17:42;;;;;;;6.80;2.60;;;14.60;80.30;;;;;;4991888;28;20053;-65
2022/05/04 12:20:08;;;;;;;2.10;1.90;;;14.80;80.10;;;;;;4997289;28;20046;-66
2022/05/04 12:22:33;;;;;;;4.25;2.30;;;15.10;80.40;;;;;;4992288;28;20037;-65
2022/05/04 12:25:00;;;;;;;3.88;2.33;;;15.10;79.90;;;;;;4992924;28;20175;-65
2022/05/04 12:27:26;;;;;;;4.25;2.85;;;15.00;78.70;;;;;;4994898;28;20053;-65
2022/05/04 12:35:29;;;;;;;3.70;2.10;;;14.80;78.80;;;;;;4996650;28;20448;-65
2022/05/04 12:37:55;;;;;;;5.18;2.50;;;14.70;79.40;;;;;;4995473;28;20106;-66
2022/05/04 12:40:23;;;;;;;2.10;1.90;;;14.90;80.40;;;;;;4992132;28;20052;-65
2022/05/04 12:42:49;;;;;;;3.10;2.33;;;14.70;80.50;;;;;;4994698;28;20057;-64
2022/05/04 12:45:16;;;;;;;4.65;2.22;;;14.70;80.50;;;;;;4992299;28;20050;-64
2022/05/04 12:47:42;;;;;;;3.65;2.38;;;14.70;80.30;;;;;;4994742;28;20049;-65
2022/05/04 12:50:08;;;;;;;2.42;2.15;;;14.80;80.30;;;;;;4990742;28;20053;-64
2022/05/04 12:52:38;;;;;;;4.85;1.92;;;15.10;80.90;;;;;;4989499;28;20042;-64
2022/05/04 12:55:04;;;;;;;2.88;2.05;;;15.50;80.50;;;;;;4994591;28;20213;-64
2022/05/04 12:57:30;;;;;;;2.63;1.90;;;15.70;80.10;;;;;;4992130;28;20776;-64
2022/05/04 12:59:56;;;;;;;4.18;1.77;;;15.40;79.80;;;;;;4996425;28;20034;-64
2022/05/04 13:02:22;;;;;;;4.63;2.38;;;15.30;80.40;;;;;;4994100;28;20137;-65
2022/05/04 13:04:48;;;;;;;2.25;1.80;;;15.30;79.80;;;;;;4999036;28;20108;-63
2022/05/04 13:07:13;;;;;;;5.35;2.75;;;15.20;78.60;;;;;;4993535;28;20148;-64
2022/05/04 13:09:41;;;;;;;2.63;2.20;;;14.90;78.80;;;;;;4996711;28;20560;-64
2022/05/04 13:12:10;;;;;;;4.20;2.13;;;15.10;80.70;;;;;;5000205;28;20252;-64
2022/05/04 13:14:38;;;;;;;3.53;2.20;;;14.90;80.10;;;;;;4993131;28;20141;-64
2022/05/04 13:17:04;;;;;;;3.55;2.25;;;14.90;79.60;;;;;;4996260;28;20057;-64
2022/05/04 13:19:30;;;;;;;6.05;2.40;;;15.00;79.50;;;;;;4999563;28;20100;-64
2022/05/04 13:21:55;;;;;;;5.93;2.10;;;14.90;78.90;;;;;;5001427;28;20844;-64
2022/05/04 13:24:21;;;;;;;4.55;2.38;;;15.00;79.90;;;;;;4999422;28;20060;-64
2022/05/04 13:26:46;;;;;;;2.70;1.90;;;15.10;80.20;;;;;;4999972;28;20049;-64
2022/05/04 13:29:12;;;;;;;4.97;2.33;;;15.40;80.60;;;;;;4998446;28;20053;-64